createdAt,value
2024-01-30T00:02:19.145Z,66.40
2024-01-30T00:04:45.942Z,66.60
2024-01-30T00:07:12.952Z,66.60
2024-01-30T00:09:41.008Z,67.00
2024-01-30T00:12:08.255Z,67.00
2024-01-30T00:14:35.166Z,66.70
2024-01-30T00:17:02.018Z,67.00
2024-01-30T00:19:29.134Z,66.80
2024-01-30T00:21:56.169Z,66.90
2024-01-30T00:24:23.105Z,66.70
2024-01-30T00:26:49.951Z,67.00
2024-01-30T00:29:20.804Z,67.10
2024-01-30T00:31:47.904Z,67.00
2024-01-30T00:34:14.945Z,67.20
2024-01-30T00:36:41.929Z,67.10
2024-01-30T00:39:10.269Z,66.80
2024-01-30T00:41:37.156Z,67.30
2024-01-30T00:44:04.177Z,67.00
2024-01-30T00:46:31.151Z,67.00
2024-01-30T00:48:58.221Z,67.00
2024-01-30T00:51:25.606Z,67.20
2024-01-30T00:53:52.487Z,67.10
2024-01-30T00:56:20.669Z,67.00
2024-01-30T00:58:47.881Z,67.10
2024-01-30T01:01:16.158Z,67.10
2024-01-30T01:03:44.885Z,67.10
2024-01-30T01:06:12.126Z,67.20
2024-01-30T01:08:38.911Z,67.20
2024-01-30T01:11:05.843Z,67.20
2024-01-30T01:13:32.807Z,67.20
2024-01-30T01:15:59.713Z,67.70
2024-01-30T01:18:26.695Z,67.40
2024-01-30T01:20:53.857Z,67.40
2024-01-30T01:23:20.645Z,67.50
2024-01-30T01:25:47.492Z,67.50
2024-01-30T01:28:14.593Z,67.60
2024-01-30T01:30:41.550Z,67.80
2024-01-30T01:33:08.508Z,67.70
2024-01-30T01:35:35.327Z,67.70
2024-01-30T01:38:02.478Z,67.50
2024-01-30T01:40:29.554Z,67.70
2024-01-30T01:42:57.362Z,67.50
2024-01-30T01:45:24.393Z,67.60
2024-01-30T01:47:53.174Z,67.60
2024-01-30T01:50:22.236Z,67.60
2024-01-30T01:52:50.025Z,67.60
2024-01-30T01:55:19.474Z,67.60
2024-01-30T01:57:49.541Z,67.60
2024-01-30T02:00:18.005Z,67.40
2024-01-30T02:02:46.771Z,67.50
2024-01-30T02:05:13.933Z,67.50
2024-01-30T02:07:41.906Z,67.70
2024-01-30T02:10:11.112Z,67.70
2024-01-30T02:12:38.173Z,67.70
2024-01-30T02:15:06.549Z,67.50
2024-01-30T02:17:33.519Z,67.70
2024-01-30T02:20:01.223Z,67.70
2024-01-30T02:22:28.840Z,67.60
2024-01-30T02:24:55.729Z,67.60
2024-01-30T02:27:22.527Z,67.80
2024-01-30T02:29:49.666Z,67.70
2024-01-30T02:32:16.704Z,67.70
2024-01-30T02:34:44.773Z,67.60
2024-01-30T02:37:11.745Z,67.80
2024-01-30T02:39:38.576Z,68.20
2024-01-30T02:42:06.341Z,67.90
2024-01-30T02:44:33.119Z,67.70
2024-01-30T02:46:59.929Z,67.60
2024-01-30T02:49:26.909Z,67.90
2024-01-30T02:51:56.174Z,67.80
2024-01-30T02:54:23.052Z,67.70
2024-01-30T02:56:49.893Z,68.00
2024-01-30T02:59:16.778Z,67.60
2024-01-30T03:01:45.656Z,67.60
2024-01-30T03:04:13.296Z,67.50
2024-01-30T03:06:45.538Z,67.50
2024-01-30T03:09:12.521Z,67.50
2024-01-30T03:11:39.438Z,67.50
2024-01-30T03:14:06.370Z,67.50
2024-01-30T03:16:33.183Z,67.50
2024-01-30T03:19:03.096Z,67.50
2024-01-30T03:21:30.149Z,67.50
2024-01-30T03:23:56.958Z,67.70
2024-01-30T03:26:23.875Z,67.60
2024-01-30T03:28:50.866Z,67.70
2024-01-30T03:31:17.762Z,67.80
2024-01-30T03:33:44.989Z,68.40
2024-01-30T03:36:12.529Z,67.80
2024-01-30T03:38:41.845Z,67.70
2024-01-30T03:41:11.912Z,67.80
2024-01-30T03:43:38.849Z,67.90
2024-01-30T03:46:06.006Z,68.00
2024-01-30T03:48:32.954Z,67.90
2024-01-30T03:50:59.945Z,68.20
2024-01-30T03:53:26.828Z,67.90
2024-01-30T03:55:53.684Z,67.80
2024-01-30T03:58:20.558Z,67.80
2024-01-30T04:00:47.682Z,67.80
2024-01-30T04:03:16.673Z,67.80
2024-01-30T04:05:46.647Z,67.80
2024-01-30T04:08:13.630Z,67.80
2024-01-30T04:10:40.909Z,67.80
2024-01-30T04:13:11.061Z,67.80
2024-01-30T04:15:39.383Z,67.80
2024-01-30T04:18:06.892Z,67.80
2024-01-30T04:20:33.745Z,67.80
2024-01-30T04:23:00.756Z,67.90
2024-01-30T04:25:27.765Z,67.90
2024-01-30T04:27:54.732Z,67.90
2024-01-30T04:30:21.606Z,67.80
2024-01-30T04:32:48.427Z,67.90
2024-01-30T04:35:15.626Z,68.30
2024-01-30T04:37:42.636Z,67.90
2024-01-30T04:40:12.150Z,67.90
2024-01-30T04:42:39.138Z,68.00
2024-01-30T04:45:07.545Z,67.90
2024-01-30T04:47:34.594Z,67.90
2024-01-30T04:50:02.578Z,68.00
2024-01-30T04:52:29.483Z,68.00
2024-01-30T04:54:56.323Z,68.00
2024-01-30T04:57:23.141Z,67.90
2024-01-30T04:59:49.978Z,68.00
2024-01-30T05:02:16.860Z,67.90
2024-01-30T05:04:43.814Z,67.90
2024-01-30T05:07:10.764Z,67.90
2024-01-30T05:09:37.623Z,67.90
2024-01-30T05:12:04.863Z,67.90
2024-01-30T05:14:31.728Z,68.00
2024-01-30T05:16:58.613Z,68.10
2024-01-30T05:19:25.527Z,68.00
2024-01-30T05:21:52.390Z,68.10
2024-01-30T05:24:21.192Z,68.20
2024-01-30T05:26:49.373Z,68.30
2024-01-30T05:29:16.294Z,68.60
2024-01-30T05:31:43.118Z,68.40
2024-01-30T05:34:10.429Z,68.40
2024-01-30T05:36:37.328Z,68.40
2024-01-30T05:39:05.725Z,68.40
2024-01-30T05:41:33.807Z,68.50
2024-01-30T05:44:00.615Z,68.60
2024-01-30T05:46:27.445Z,68.60
2024-01-30T05:48:54.581Z,68.50
2024-01-30T05:51:21.451Z,68.60
2024-01-30T05:53:48.272Z,68.60
2024-01-30T05:56:15.090Z,68.60
2024-01-30T05:58:42.010Z,68.90
2024-01-30T06:01:09.822Z,68.60
2024-01-30T06:03:37.034Z,68.50
2024-01-30T06:06:04.123Z,69.00
2024-01-30T06:08:31.035Z,69.00
2024-01-30T06:11:01.751Z,68.80
2024-01-30T06:13:33.049Z,68.80
2024-01-30T06:16:00.133Z,68.90
2024-01-30T06:18:28.215Z,68.90
2024-01-30T06:20:55.002Z,68.90
2024-01-30T06:23:21.777Z,69.00
2024-01-30T06:25:48.526Z,69.10
2024-01-30T06:28:15.363Z,69.20
2024-01-30T06:30:42.378Z,69.50
2024-01-30T06:33:09.183Z,69.20
2024-01-30T06:35:37.200Z,69.30
2024-01-30T06:38:04.109Z,69.10
2024-01-30T06:40:31.059Z,69.10
2024-01-30T06:42:57.842Z,69.20
2024-01-30T06:45:24.630Z,69.00
2024-01-30T06:47:54.531Z,69.10
2024-01-30T06:50:56.493Z,69.00
2024-01-30T06:53:23.283Z,68.90
2024-01-30T06:55:50.142Z,68.90
2024-01-30T06:58:17.117Z,68.90
2024-01-30T07:00:46.831Z,68.80
2024-01-30T07:03:16.386Z,68.80
2024-01-30T07:06:46.581Z,68.60
2024-01-30T07:09:24.427Z,68.70
2024-01-30T07:11:59.500Z,68.90
2024-01-30T07:14:28.072Z,68.70
2024-01-30T07:16:59.633Z,69.00
2024-01-30T07:19:26.569Z,68.70
2024-01-30T07:21:53.596Z,68.70
2024-01-30T07:24:20.446Z,68.50
2024-01-30T07:26:47.430Z,68.60
2024-01-30T07:29:14.192Z,68.70
2024-01-30T07:31:41.552Z,68.70
2024-01-30T07:34:08.440Z,68.70
2024-01-30T07:36:35.335Z,69.20
2024-01-30T07:39:02.101Z,68.70
2024-01-30T07:41:28.839Z,68.70
2024-01-30T07:43:55.555Z,68.80
2024-01-30T07:46:22.487Z,68.80
2024-01-30T07:48:50.863Z,68.90
2024-01-30T07:51:18.822Z,68.90
2024-01-30T07:53:46.113Z,68.90
2024-01-30T07:56:12.913Z,69.00
2024-01-30T07:58:39.853Z,69.00
2024-01-30T08:01:06.695Z,69.00
2024-01-30T08:03:33.517Z,69.00
2024-01-30T08:06:00.316Z,69.10
2024-01-30T08:08:32.486Z,69.10
2024-01-30T08:10:59.462Z,69.30
2024-01-30T08:13:26.523Z,69.30
2024-01-30T08:15:53.417Z,69.30
2024-01-30T08:18:20.360Z,69.30
2024-01-30T08:20:47.282Z,69.40
2024-01-30T08:23:14.463Z,69.50
2024-01-30T08:25:41.292Z,69.20
2024-01-30T08:28:10.742Z,69.30
2024-01-30T08:30:41.042Z,69.40
2024-01-30T08:33:09.842Z,69.50
2024-01-30T08:35:36.842Z,69.40
2024-01-30T08:38:04.448Z,69.70
2024-01-30T08:40:34.100Z,69.50
2024-01-30T08:43:01.154Z,69.40
2024-01-30T08:45:28.036Z,69.30
2024-01-30T08:47:59.570Z,69.20
2024-01-30T08:50:26.539Z,69.20
2024-01-30T08:52:54.670Z,69.10
2024-01-30T08:55:21.850Z,69.10
2024-01-30T08:57:51.776Z,69.10
2024-01-30T09:00:22.618Z,69.10
2024-01-30T09:02:53.829Z,69.00
2024-01-30T09:05:20.720Z,69.00
2024-01-30T09:07:47.808Z,69.00
2024-01-30T09:10:16.049Z,68.90
2024-01-30T09:12:44.102Z,69.00
2024-01-30T09:15:11.210Z,69.50
2024-01-30T09:17:38.270Z,69.00
2024-01-30T09:20:06.880Z,69.30
2024-01-30T09:22:34.327Z,68.70
2024-01-30T09:25:04.095Z,68.50
2024-01-30T09:27:35.816Z,68.80
2024-01-30T09:30:05.380Z,68.80
2024-01-30T09:32:32.465Z,68.60
2024-01-30T09:35:01.979Z,68.60
2024-01-30T09:37:29.206Z,68.80
2024-01-30T09:40:03.177Z,68.60
2024-01-30T09:42:45.141Z,68.20
2024-01-30T09:45:15.512Z,68.00
2024-01-30T09:47:45.069Z,67.90
2024-01-30T09:50:18.288Z,67.70
2024-01-30T09:52:49.261Z,67.60
2024-01-30T09:55:20.621Z,67.60
2024-01-30T09:57:47.902Z,67.50
2024-01-30T10:00:16.908Z,67.50
2024-01-30T10:02:44.200Z,67.60
2024-01-30T10:05:16.381Z,67.10
2024-01-30T10:07:55.361Z,67.10
2024-01-30T10:10:25.843Z,66.60
2024-01-30T10:12:53.279Z,66.80
2024-01-30T10:15:26.802Z,66.70
2024-01-30T10:17:56.984Z,66.70
2024-01-30T10:20:34.414Z,66.60
2024-01-30T10:23:13.033Z,66.30
2024-01-30T10:25:48.195Z,66.40
2024-01-30T10:28:35.387Z,66.40
2024-01-30T10:31:40.789Z,66.30
2024-01-30T10:34:12.540Z,65.20
2024-01-30T10:36:53.778Z,65.90
2024-01-30T10:39:47.928Z,65.20
2024-01-30T10:43:10.378Z,65.50
2024-01-30T10:46:50.696Z,65.40
2024-01-30T10:49:54.680Z,65.00
2024-01-30T10:52:42.411Z,65.20
2024-01-30T10:55:33.451Z,65.10
2024-01-30T10:58:14.716Z,65.50
2024-01-30T11:04:13.600Z,65.50
2024-01-30T11:10:07.959Z,64.90
2024-01-30T11:12:42.124Z,64.40
2024-01-30T11:15:25.459Z,65.10
2024-01-30T11:17:56.255Z,64.20
2024-01-30T11:20:36.788Z,64.70
2024-01-30T11:23:19.387Z,64.80
2024-01-30T11:26:12.994Z,64.50
2024-01-30T11:28:54.939Z,64.50
2024-01-30T11:31:41.718Z,64.00
2024-01-30T11:35:13.280Z,63.20
2024-01-30T11:38:37.986Z,63.70
2024-01-30T11:42:00.772Z,61.20
2024-01-30T11:44:31.257Z,62.70
2024-01-30T11:56:44.572Z,63.10
2024-01-30T12:18:50.012Z,62.70
2024-01-30T12:21:24.893Z,63.30
2024-01-30T12:24:05.506Z,63.20
2024-01-30T12:29:47.888Z,63.30
2024-01-30T12:32:34.089Z,62.70
2024-01-30T12:38:33.265Z,61.80
2024-01-30T12:41:35.432Z,62.50
2024-01-30T12:44:02.739Z,61.90
2024-01-30T12:47:03.452Z,62.70
2024-01-30T12:50:14.792Z,62.70
2024-01-30T12:52:54.476Z,62.20
2024-01-30T12:59:29.389Z,61.40
2024-01-30T13:03:21.423Z,62.40
2024-01-30T13:06:27.187Z,61.80
2024-01-30T13:12:31.320Z,61.80
2024-01-30T13:15:20.522Z,61.60
2024-01-30T13:18:46.465Z,61.70
2024-01-30T13:21:17.334Z,61.70
2024-01-30T13:24:25.239Z,62.40
2024-01-30T13:27:35.499Z,61.90
2024-01-30T13:30:45.950Z,62.10
2024-01-30T13:33:43.959Z,62.00
2024-01-30T13:37:18.018Z,61.30
2024-01-30T13:40:54.314Z,61.00
2024-01-30T13:44:19.115Z,61.00
2024-01-30T13:50:21.508Z,61.10
2024-01-30T13:53:27.927Z,59.80
2024-01-30T14:00:26.629Z,61.20
2024-01-30T14:05:58.233Z,61.30
2024-01-30T14:09:08.658Z,61.40
2024-01-30T14:13:01.445Z,61.20
2024-01-30T14:16:03.980Z,61.40
2024-01-30T14:18:42.630Z,61.50
2024-01-30T14:21:50.164Z,61.10
2024-01-30T14:24:17.114Z,61.40
2024-01-30T14:26:46.460Z,61.50
2024-01-30T14:29:20.401Z,61.30
2024-01-30T14:31:56.254Z,61.50
2024-01-30T14:34:23.436Z,61.30
2024-01-30T14:36:50.602Z,61.30
2024-01-30T14:39:17.747Z,61.50
2024-01-30T14:41:44.997Z,61.20
2024-01-30T14:44:15.125Z,61.40
2024-01-30T14:46:45.059Z,61.40
2024-01-30T14:49:16.717Z,61.30
2024-01-30T14:51:44.215Z,61.50
2024-01-30T14:54:12.342Z,61.20
2024-01-30T14:56:44.869Z,61.20
2024-01-30T14:59:12.228Z,61.30
2024-01-30T15:01:44.395Z,61.20
2024-01-30T15:04:11.517Z,61.40
2024-01-30T15:06:39.187Z,61.20
2024-01-30T15:09:06.215Z,61.10
2024-01-30T15:11:36.641Z,61.20
2024-01-30T15:14:03.670Z,61.20
2024-01-30T15:16:31.553Z,61.20
2024-01-30T15:18:58.801Z,61.20
2024-01-30T15:21:26.933Z,61.10
2024-01-30T15:23:54.242Z,61.10
2024-01-30T15:26:21.180Z,61.10
2024-01-30T15:28:47.982Z,60.90
2024-01-30T15:31:15.030Z,61.00
2024-01-30T15:33:43.471Z,61.00
2024-01-30T15:36:14.325Z,60.90
2024-01-30T15:39:54.535Z,60.70
2024-01-30T15:42:24.926Z,60.70
2024-01-30T15:44:51.852Z,61.00
2024-01-30T15:47:18.745Z,60.70
2024-01-30T15:49:45.692Z,60.80
2024-01-30T15:52:18.568Z,61.00
2024-01-30T15:55:22.474Z,60.80
2024-01-30T16:00:56.499Z,60.60
2024-01-30T16:04:28.653Z,60.60
2024-01-30T16:09:57.966Z,60.20
2024-01-30T16:12:24.859Z,60.80
2024-01-30T16:14:51.601Z,60.60
2024-01-30T16:48:27.946Z,60.60
2024-01-30T16:50:57.763Z,61.30
2024-01-30T16:53:24.706Z,61.10
2024-01-30T16:55:53.033Z,61.30
2024-01-30T16:58:23.075Z,61.30
2024-01-30T17:00:50.248Z,61.30
2024-01-30T17:03:17.126Z,61.30
2024-01-30T17:05:44.012Z,61.40
2024-01-30T17:08:11.300Z,61.40
2024-01-30T17:10:38.592Z,61.60
2024-01-30T17:13:05.614Z,61.50
2024-01-30T17:15:32.541Z,61.50
2024-01-30T17:17:59.304Z,61.50
2024-01-30T17:20:26.225Z,61.40
2024-01-30T17:22:53.117Z,61.60
2024-01-30T17:25:20.000Z,61.70
2024-01-30T17:27:47.076Z,61.60
2024-01-30T17:30:15.306Z,61.70
2024-01-30T17:32:42.573Z,61.70
2024-01-30T17:35:09.902Z,61.70
2024-01-30T17:37:39.255Z,61.80
2024-01-30T17:40:08.165Z,61.80
2024-01-30T17:42:36.524Z,61.80
2024-01-30T17:45:04.825Z,61.90
2024-01-30T17:47:31.696Z,61.90
2024-01-30T17:49:58.896Z,62.00
2024-01-30T17:52:25.833Z,62.00
2024-01-30T17:54:56.717Z,62.00
2024-01-30T17:57:26.409Z,61.50
2024-01-30T17:59:53.724Z,61.90
2024-01-30T18:02:23.273Z,62.10
2024-01-30T18:04:50.274Z,62.00
2024-01-30T18:07:17.298Z,62.00
2024-01-30T18:09:44.173Z,62.10
2024-01-30T18:12:13.684Z,62.00
2024-01-30T18:14:40.503Z,62.10
2024-01-30T18:17:07.331Z,62.30
2024-01-30T18:19:34.184Z,62.40
2024-01-30T18:22:01.034Z,62.20
2024-01-30T18:24:28.333Z,61.90
2024-01-30T18:26:56.020Z,62.10
2024-01-30T18:29:23.278Z,62.10
2024-01-30T18:31:50.213Z,62.20
2024-01-30T18:34:17.101Z,62.10
2024-01-30T18:36:44.207Z,62.20
2024-01-30T18:39:11.522Z,62.10
2024-01-30T18:41:38.512Z,62.20
2024-01-30T18:44:05.495Z,62.20
2024-01-30T18:46:32.588Z,62.10
2024-01-30T18:49:00.035Z,62.20
2024-01-30T18:51:27.032Z,62.30
2024-01-30T18:53:53.903Z,62.10
2024-01-30T18:56:21.788Z,62.20
2024-01-30T18:58:48.697Z,62.30
2024-01-30T19:01:15.879Z,62.30
2024-01-30T19:03:48.359Z,62.40
2024-01-30T19:06:15.480Z,63.00
2024-01-30T19:08:42.440Z,62.30
2024-01-30T19:11:20.244Z,62.30
2024-01-30T19:13:47.021Z,62.40
2024-01-30T19:16:13.860Z,62.90
2024-01-30T19:18:43.472Z,62.50
2024-01-30T19:21:10.832Z,62.50
2024-01-30T19:23:37.694Z,62.60
2024-01-30T19:26:05.046Z,62.60
2024-01-30T19:28:31.858Z,62.50
2024-01-30T19:31:01.870Z,63.10
2024-01-30T19:33:28.978Z,62.70
2024-01-30T19:35:55.913Z,62.70
2024-01-30T19:38:24.213Z,62.70
2024-01-30T19:40:53.238Z,62.80
2024-01-30T19:43:25.892Z,62.80
2024-01-30T19:45:55.983Z,63.10
2024-01-30T19:48:23.033Z,62.70
2024-01-30T19:50:50.186Z,62.80
2024-01-30T19:53:19.276Z,62.80
2024-01-30T19:55:46.305Z,62.90
2024-01-30T19:58:14.823Z,62.90
2024-01-30T20:00:41.827Z,62.80
2024-01-30T20:03:08.885Z,62.90
2024-01-30T20:05:35.759Z,62.80
2024-01-30T20:08:02.687Z,62.90
2024-01-30T20:10:29.687Z,62.90
2024-01-30T20:12:56.645Z,63.10
2024-01-30T20:15:23.463Z,62.90
2024-01-30T20:17:50.400Z,62.90
2024-01-30T20:20:18.167Z,63.20
2024-01-30T20:22:48.095Z,63.00
2024-01-30T20:25:19.128Z,63.00
2024-01-30T20:27:48.131Z,63.10
2024-01-30T20:30:15.371Z,63.00
2024-01-30T20:32:42.292Z,63.10
2024-01-30T20:35:09.765Z,63.40
2024-01-30T20:37:38.454Z,63.10
2024-01-30T20:40:06.498Z,63.20
2024-01-30T20:42:33.386Z,63.00
2024-01-30T20:45:04.170Z,63.00
2024-01-30T20:47:31.688Z,63.10
2024-01-30T20:49:58.563Z,63.10
2024-01-30T20:52:25.489Z,63.10
2024-01-30T20:54:52.637Z,63.00
2024-01-30T20:57:19.501Z,63.10
2024-01-30T20:59:46.296Z,63.40
2024-01-30T21:02:13.324Z,63.20
2024-01-30T21:04:40.214Z,63.30
2024-01-30T21:07:08.643Z,63.40
2024-01-30T21:09:35.412Z,63.40
2024-01-30T21:12:02.251Z,63.50
2024-01-30T21:14:29.260Z,63.50
2024-01-30T21:16:57.423Z,63.50
2024-01-30T21:19:24.448Z,63.40
2024-01-30T21:21:51.389Z,63.50
2024-01-30T21:24:18.497Z,63.00
2024-01-30T21:26:45.646Z,63.60
2024-01-30T21:29:12.450Z,63.50
2024-01-30T21:31:39.958Z,63.60
2024-01-30T21:34:06.780Z,63.50
2024-01-30T21:36:33.550Z,63.60
2024-01-30T21:39:00.695Z,63.50
2024-01-30T21:41:27.478Z,63.50
2024-01-30T21:43:54.428Z,63.80
2024-01-30T21:46:28.292Z,64.10
2024-01-30T21:48:55.497Z,63.70
2024-01-30T21:51:22.612Z,63.50
2024-01-30T21:53:49.519Z,63.60
2024-01-30T21:56:16.548Z,63.90
2024-01-30T21:58:43.518Z,63.60
2024-01-30T22:01:10.475Z,63.80
2024-01-30T22:03:37.964Z,63.60
2024-01-30T22:06:05.609Z,63.60
2024-01-30T22:08:32.352Z,63.70
2024-01-30T22:10:59.479Z,63.60
2024-01-30T22:13:26.641Z,63.60
2024-01-30T22:15:53.418Z,63.60
2024-01-30T22:18:20.390Z,63.60
2024-01-30T22:20:47.252Z,63.70
2024-01-30T22:23:14.510Z,63.70
2024-01-30T22:25:44.285Z,64.30
2024-01-30T22:28:11.374Z,63.70
2024-01-30T22:30:38.190Z,63.90
2024-01-30T22:33:07.003Z,64.50
2024-01-30T22:35:34.020Z,64.00
2024-01-30T22:38:01.064Z,64.00
2024-01-30T22:40:27.964Z,64.00
2024-01-30T22:42:55.525Z,64.00
2024-01-30T22:45:24.702Z,64.00
2024-01-30T22:47:51.608Z,64.00
2024-01-30T22:50:18.615Z,63.80
2024-01-30T22:52:45.529Z,64.10
2024-01-30T22:55:12.640Z,63.40
2024-01-30T22:57:39.796Z,64.00
2024-01-30T23:00:22.506Z,63.80
2024-01-30T23:02:54.424Z,64.00
2024-01-30T23:05:21.723Z,64.00
2024-01-30T23:07:49.599Z,64.00
2024-01-30T23:10:16.948Z,63.90
2024-01-30T23:12:45.745Z,63.80
2024-01-30T23:15:12.891Z,63.80
2024-01-30T23:17:39.830Z,63.80
2024-01-30T23:20:08.435Z,63.90
2024-01-30T23:22:35.415Z,63.90
2024-01-30T23:25:02.434Z,63.90
2024-01-30T23:27:29.450Z,63.90
2024-01-30T23:29:56.531Z,63.80
2024-01-30T23:32:30.077Z,63.80
2024-01-30T23:35:02.056Z,63.60
2024-01-30T23:37:29.090Z,63.80
2024-01-30T23:39:55.979Z,63.80
2024-01-30T23:42:23.055Z,63.80
2024-01-30T23:44:49.881Z,63.90
2024-01-30T23:47:16.722Z,63.90
2024-01-30T23:49:43.695Z,64.30
2024-01-30T23:52:10.552Z,63.90
2024-01-30T23:54:37.330Z,64.00
2024-01-30T23:57:04.587Z,63.90
2024-01-30T23:59:33.953Z,63.90
